Time;durP1;ratioP1;P1;durP2;ratioP2;P2;SDS_P1;SDS_P2;PMS_P1;PMS_P2;Temp;Humidity;BMP_temperature;BMP_pressure;BME280_temperature;BME280_humidity;BME280_pressure;Samples;Min_cycle;Max_cycle;Signal;HPM_P1;HPM_P2
2022/12/03 00:00:36;;;;;;;21.77;19.00;;;;;;;7.16;60.36;102213.63;4976763;28;20054;-69
2022/12/03 00:03:01;;;;;;;20.48;18.48;;;;;;;7.17;60.19;102215.28;4976545;28;20063;-69
2022/12/03 00:05:26;;;;;;;22.52;20.17;;;;;;;7.17;60.20;102209.91;4976728;28;20035;-70
2022/12/03 00:07:52;;;;;;;20.05;17.65;;;;;;;7.16;60.27;102208.25;4976769;28;20392;-70
2022/12/03 00:10:17;;;;;;;22.08;19.88;;;;;;;7.15;60.46;102214.63;4975240;28;20035;-70
2022/12/03 00:12:42;;;;;;;19.42;16.95;;;;;;;7.16;60.14;102208.25;4976623;28;20027;-70
2022/12/03 00:15:09;;;;;;;18.48;16.88;;;;;;;7.16;60.53;102210.94;4976528;28;20035;-70
2022/12/03 00:17:34;;;;;;;19.30;17.23;;;;;;;7.14;60.07;102203.06;4976948;28;20031;-70
2022/12/03 00:20:00;;;;;;;18.15;16.08;;;;;;;7.15;60.44;102207.41;4991982;28;20123;-70
2022/12/03 00:22:25;;;;;;;20.35;17.30;;;;;;;7.14;60.52;102205.75;4976125;28;20470;-70
2022/12/03 00:24:51;;;;;;;19.13;16.90;;;;;;;7.16;60.53;102202.88;4976213;28;20090;-70
2022/12/03 00:27:16;;;;;;;19.90;18.13;;;;;;;7.14;60.17;102207.59;4976123;28;20074;-70
2022/12/03 00:29:41;;;;;;;24.80;19.45;;;;;;;7.13;60.14;102204.09;4976803;28;20050;-70
2022/12/03 00:32:07;;;;;;;20.48;18.50;;;;;;;7.12;60.25;102193.50;4976347;28;20551;-69
2022/12/03 00:34:32;;;;;;;24.15;18.52;;;;;;;7.13;60.22;102195.16;4976106;28;20462;-69
2022/12/03 00:36:57;;;;;;;17.38;15.90;;;;;;;7.12;60.39;102193.50;4975261;28;20054;-70
2022/12/03 00:39:23;;;;;;;25.05;18.30;;;;;;;7.11;60.15;102194.53;4974912;28;20031;-72
2022/12/03 00:41:48;;;;;;;20.77;17.88;;;;;;;7.08;60.54;102194.88;4976288;28;20034;-72
2022/12/03 00:44:13;;;;;;;27.20;18.60;;;;;;;7.07;60.29;102190.53;4974568;28;20202;-70
2022/12/03 00:46:39;;;;;;;21.38;18.35;;;;;;;7.06;60.36;102189.72;4976188;28;20030;-70
2022/12/03 00:49:04;;;;;;;20.05;17.10;;;;;;;7.07;60.11;102194.06;4976505;28;20455;-70
2022/12/03 00:51:29;;;;;;;21.95;19.70;;;;;;;7.08;60.11;102194.88;4975634;28;20045;-71
2022/12/03 00:53:55;;;;;;;20.52;18.65;;;;;;;7.07;60.34;102193.22;4976115;28;20479;-70
2022/12/03 00:56:20;;;;;;;20.38;18.17;;;;;;;7.07;59.97;102198.59;4990734;28;20154;-70
2022/12/03 00:58:45;;;;;;;21.85;18.95;;;;;;;7.06;60.16;102194.25;4975787;28;20035;-70
2022/12/03 01:01:11;;;;;;;23.25;19.35;;;;;;;7.07;60.11;102190.53;4976031;28;20416;-69
2022/12/03 01:03:36;;;;;;;22.00;18.60;;;;;;;7.06;59.87;102205.00;4975669;28;20110;-69
2022/12/03 01:06:02;;;;;;;22.55;18.92;;;;;;;7.05;59.92;102185.34;4975972;28;20034;-69
2022/12/03 01:08:28;;;;;;;23.63;19.20;;;;;;;7.05;60.03;102190.72;4974455;28;20137;-75
2022/12/03 01:10:53;;;;;;;23.67;19.27;;;;;;;7.05;60.26;102189.88;4975600;28;20479;-71
2022/12/03 01:13:19;;;;;;;20.02;18.05;;;;;;;7.05;60.04;102187.19;4990516;28;20036;-71
2022/12/03 01:15:44;;;;;;;28.88;19.90;;;;;;;7.06;60.02;102178.97;4975366;28;20472;-69
2022/12/03 01:18:09;;;;;;;19.95;17.88;;;;;;;7.05;60.39;102184.50;4975527;28;20038;-70
2022/12/03 01:20:35;;;;;;;28.40;19.60;;;;;;;7.05;60.00;102181.81;4975660;28;20039;-70
2022/12/03 01:23:01;;;;;;;20.50;18.30;;;;;;;7.05;60.20;102179.97;4990834;28;20122;-70
2022/12/03 01:25:26;;;;;;;20.52;18.55;;;;;;;7.04;59.91;102175.63;4990925;28;20066;-70
2022/12/03 01:27:51;;;;;;;20.60;17.75;;;;;;;7.05;60.09;102176.44;4991034;28;20038;-69
2022/12/03 01:30:17;;;;;;;22.42;17.95;;;;;;;7.05;59.93;102179.13;4975369;28;20507;-72
2022/12/03 01:32:42;;;;;;;24.00;19.42;;;;;;;7.05;59.89;102179.13;4990184;28;20034;-70
2022/12/03 01:35:08;;;;;;;21.02;17.95;;;;;;;7.03;59.97;102175.78;4975363;28;20031;-69
2022/12/03 01:37:34;;;;;;;20.75;17.20;;;;;;;7.02;59.96;102174.97;4975143;28;20037;-69
2022/12/03 01:39:59;;;;;;;23.15;18.85;;;;;;;7.03;60.10;102176.66;4975613;28;20517;-69
2022/12/03 01:42:29;;;;;;;20.33;18.27;;;;;;;7.03;60.05;102181.16;4975085;28;20070;-69
2022/12/03 01:44:57;;;;;;;19.48;17.50;;;;;;;7.04;59.99;102177.47;4974965;28;20029;-70
2022/12/03 01:47:34;;;;;;;22.10;18.88;;;;;;;7.03;60.22;102179.34;4974794;28;20081;-69
2022/12/03 01:50:14;;;;;;;19.02;17.15;;;;;;;7.03;60.13;102173.09;4975373;28;20085;-69
2022/12/03 01:52:40;;;;;;;20.25;18.13;;;;;;;7.03;59.96;102173.09;4974884;28;20038;-72
2022/12/03 01:55:12;;;;;;;20.75;17.45;;;;;;;7.02;60.00;102166.91;4975075;28;20047;-71
2022/12/03 01:57:44;;;;;;;22.13;19.33;;;;;;;7.02;59.90;102166.09;4975422;28;20448;-70
2022/12/03 02:00:18;;;;;;;24.63;19.60;;;;;;;7.02;60.32;102168.75;4974593;28;20046;-70
2022/12/03 02:02:47;;;;;;;20.80;18.70;;;;;;;7.01;60.02;102173.31;4974781;28;20061;-70
2022/12/03 02:05:22;;;;;;;21.35;18.75;;;;;;;7.01;59.86;102164.44;4974774;28;20507;-72
2022/12/03 02:07:47;;;;;;;22.20;19.77;;;;;;;7.01;60.05;102167.13;4974627;28;20031;-69
2022/12/03 02:10:16;;;;;;;19.25;17.13;;;;;;;7.01;60.01;102173.31;4975002;28;20055;-70
2022/12/03 02:12:58;;;;;;;22.25;19.40;;;;;;;7.01;60.08;102169.81;4974735;28;20034;-72
2022/12/03 02:15:24;;;;;;;19.15;17.20;;;;;;;7.00;60.10;102165.44;4974892;28;20027;-70
2022/12/03 02:17:50;;;;;;;23.90;19.23;;;;;;;6.99;59.94;102161.09;4973568;28;20035;-70
2022/12/03 02:20:16;;;;;;;20.38;18.38;;;;;;;7.00;60.10;102160.06;4974624;28;20031;-70
2022/12/03 02:23:02;;;;;;;21.73;19.17;;;;;;;6.99;59.80;102163.78;4974357;28;20038;-70
2022/12/03 02:25:31;;;;;;;21.70;19.45;;;;;;;6.98;60.12;102160.25;4975178;28;20073;-70
2022/12/03 02:27:58;;;;;;;20.48;17.27;;;;;;;6.98;60.00;102164.78;4974552;28;20027;-70
2022/12/03 02:30:25;;;;;;;19.70;17.65;;;;;;;6.97;59.90;102161.25;4974725;28;20382;-70
2022/12/03 02:32:52;;;;;;;22.42;20.05;;;;;;;6.97;60.29;102169.31;4974152;28;20487;-70
2022/12/03 02:35:20;;;;;;;23.92;18.13;;;;;;;6.97;60.00;102172.00;4974427;28;20035;-70
2022/12/03 02:37:49;;;;;;;26.13;19.15;;;;;;;6.98;60.17;102162.09;4974433;28;20479;-70
2022/12/03 02:40:19;;;;;;;20.45;18.17;;;;;;;6.97;60.16;102165.81;4974254;28;20109;-70
2022/12/03 02:42:45;;;;;;;23.55;19.75;;;;;;;6.97;60.06;102158.56;4975091;28;20063;-70
2022/12/03 02:45:21;;;;;;;18.42;16.70;;;;;;;6.98;60.10;102159.41;4974132;28;20109;-69
2022/12/03 02:47:52;;;;;;;24.17;20.65;;;;;;;6.97;60.00;102155.88;4974319;28;20034;-69
2022/12/03 02:50:22;;;;;;;20.52;17.48;;;;;;;6.97;60.03;102155.88;4974481;28;20114;-71
2022/12/03 02:52:49;;;;;;;26.30;19.65;;;;;;;6.98;60.18;102154.88;4974837;28;20042;-70
2022/12/03 02:55:16;;;;;;;21.30;19.20;;;;;;;6.97;60.18;102160.44;4974246;28;20451;-70
2022/12/03 02:57:45;;;;;;;23.83;18.05;;;;;;;6.97;60.00;102157.75;4974196;28;20035;-69
2022/12/03 03:00:11;;;;;;;19.65;17.83;;;;;;;6.97;60.05;102155.06;4975728;28;20464;-69
2022/12/03 03:02:39;;;;;;;23.85;19.48;;;;;;;6.97;59.93;102157.75;4978002;28;20065;-70
2022/12/03 03:05:06;;;;;;;21.92;19.13;;;;;;;6.96;60.16;102148.84;4978058;28;20043;-73
2022/12/03 03:07:32;;;;;;;21.45;19.30;;;;;;;6.97;60.05;102147.00;4977576;28;20479;-69
2022/12/03 03:09:58;;;;;;;22.42;18.48;;;;;;;6.97;60.20;102147.00;4976872;28;20039;-72
2022/12/03 03:12:24;;;;;;;22.23;18.35;;;;;;;6.97;59.98;102144.31;4993129;28;20047;-73
2022/12/03 03:14:49;;;;;;;22.50;20.20;;;;;;;6.96;59.97;102142.66;4977030;28;20044;-69
2022/12/03 03:17:15;;;;;;;25.80;19.55;;;;;;;6.97;60.04;102155.88;4977741;28;20038;-70
2022/12/03 03:19:41;;;;;;;25.77;20.83;;;;;;;6.96;60.00;102145.34;4977732;28;20038;-70
2022/12/03 03:22:08;;;;;;;21.13;18.73;;;;;;;6.95;60.04;102141.78;4977347;28;20023;-70
2022/12/03 03:24:34;;;;;;;23.40;18.45;;;;;;;6.94;60.00;102143.66;4977612;28;20045;-70
2022/12/03 03:26:59;;;;;;;28.20;21.27;;;;;;;6.94;60.26;102143.66;4992721;28;20030;-69
2022/12/03 03:29:25;;;;;;;20.92;18.67;;;;;;;6.94;60.26;102140.97;4977544;28;20502;-71
2022/12/03 03:31:50;;;;;;;23.92;20.20;;;;;;;6.95;60.00;102133.75;4977412;28;20494;-69
2022/12/03 03:34:16;;;;;;;20.85;18.65;;;;;;;6.94;59.92;102130.22;4977621;28;20037;-76
2022/12/03 03:36:42;;;;;;;20.73;18.73;;;;;;;6.94;60.17;102132.09;4992452;28;20537;-71
2022/12/03 03:39:08;;;;;;;21.23;17.85;;;;;;;6.94;60.01;102135.59;4977280;28;20030;-72
2022/12/03 03:41:34;;;;;;;24.00;20.25;;;;;;;6.95;59.82;102133.75;4977325;28;20092;-70
2022/12/03 03:44:02;;;;;;;22.00;18.67;;;;;;;6.94;60.20;102132.91;4976069;28;20046;-74
2022/12/03 03:46:28;;;;;;;21.02;17.75;;;;;;;6.94;60.00;102132.09;4977440;28;20138;-72
2022/12/03 03:48:53;;;;;;;24.85;20.60;;;;;;;6.94;60.01;102132.09;4977155;28;20023;-71
2022/12/03 03:51:20;;;;;;;23.55;18.67;;;;;;;6.93;60.03;102128.56;4992374;28;20043;-70
2022/12/03 03:53:48;;;;;;;22.77;19.40;;;;;;;6.93;60.18;102128.56;4975725;28;20038;-70
2022/12/03 03:56:16;;;;;;;21.10;18.75;;;;;;;6.94;59.95;102127.53;4977162;28;20031;-70
2022/12/03 03:58:41;;;;;;;22.88;18.20;;;;;;;6.94;59.92;102130.22;4977253;28;20062;-70
2022/12/03 04:01:10;;;;;;;21.35;19.13;;;;;;;6.94;59.96;102132.09;4977175;28;20553;-70
2022/12/03 04:03:35;;;;;;;19.95;18.08;;;;;;;6.93;60.19;102125.88;4977109;28;20023;-74
2022/12/03 04:06:00;;;;;;;21.52;19.23;;;;;;;6.93;60.09;102125.88;4975580;28;20035;-71
2022/12/03 04:08:26;;;;;;;20.35;16.63;;;;;;;6.92;60.07;102118.81;4976798;28;20049;-70
2022/12/03 04:13:36;;;;;;;19.58;17.52;;;;;;;6.92;59.72;102126.88;4977000;28;20514;-70
2022/12/03 04:16:01;;;;;;;30.05;20.73;;;;;;;6.91;60.17;102114.47;4991556;28;20031;-70
2022/12/03 04:18:41;;;;;;;20.77;18.55;;;;;;;6.92;60.06;102109.94;4991247;28;20192;-71
2022/12/03 04:23:52;;;;;;;22.98;17.38;;;;;;;6.89;60.13;102111.13;4975637;28;20161;-76
2022/12/03 04:29:01;;;;;;;25.38;19.63;;;;;;;6.89;60.00;102103.09;4976583;28;20042;-70
2022/12/03 04:36:55;;;;;;;21.48;18.30;;;;;;;6.87;59.96;102112.34;4976520;28;20050;-73
2022/12/03 04:39:20;;;;;;;24.00;18.75;;;;;;;6.87;60.10;102109.66;4976148;28;20035;-70
2022/12/03 04:41:46;;;;;;;20.65;18.55;;;;;;;6.86;59.98;102106.13;4975942;28;20122;-70
2022/12/03 04:46:55;;;;;;;22.50;17.27;;;;;;;6.85;59.84;102115.19;4976108;28;20109;-80
2022/12/03 04:49:21;;;;;;;21.08;18.92;;;;;;;6.86;59.90;102110.69;4976119;28;20464;-71
2022/12/03 04:51:49;;;;;;;21.58;19.45;;;;;;;6.86;59.94;102100.78;4976020;28;20046;-70
2022/12/03 04:54:15;;;;;;;20.77;17.48;;;;;;;6.85;60.00;102101.78;4975748;28;20421;-70
2022/12/03 04:56:40;;;;;;;23.48;17.63;;;;;;;6.86;60.08;102098.09;4975929;28;20474;-70
2022/12/03 04:59:05;;;;;;;24.55;20.65;;;;;;;6.86;60.06;102102.63;4975792;28;20422;-71
2022/12/03 05:01:31;;;;;;;29.85;18.60;;;;;;;6.84;59.96;102086.69;4975461;28;20418;-70
2022/12/03 05:03:56;;;;;;;20.92;18.45;;;;;;;6.85;59.96;102096.41;4975758;28;20030;-77
2022/12/03 05:06:21;;;;;;;21.65;18.70;;;;;;;6.86;60.11;102099.94;4975693;28;20083;-70
2022/12/03 05:08:47;;;;;;;24.45;18.80;;;;;;;6.85;59.84;102099.09;4975410;28;20422;-68
2022/12/03 05:11:12;;;;;;;26.17;20.73;;;;;;;6.85;59.88;102099.09;4990472;28;20031;-69
2022/12/03 05:13:38;;;;;;;19.42;17.45;;;;;;;6.85;60.16;102096.41;4975615;28;20127;-71
2022/12/03 05:16:03;;;;;;;25.85;19.88;;;;;;;6.85;60.10;102101.78;4975617;28;20118;-71
2022/12/03 05:18:29;;;;;;;23.80;18.20;;;;;;;6.85;60.17;102096.41;4990210;28;20094;-73
2022/12/03 05:20:54;;;;;;;20.13;17.55;;;;;;;6.85;59.92;102098.25;4974164;28;20031;-70
2022/12/03 05:23:20;;;;;;;20.92;18.30;;;;;;;6.84;59.79;102094.75;4989825;28;20035;-71
2022/12/03 05:25:45;;;;;;;20.70;17.92;;;;;;;6.85;60.23;102087.50;4975157;28;20038;-70
2022/12/03 05:28:10;;;;;;;21.83;19.65;;;;;;;6.84;59.96;102078.63;4975329;28;20109;-71
2022/12/03 05:30:36;;;;;;;23.75;19.58;;;;;;;6.85;59.90;102091.03;4975534;28;20078;-71
2022/12/03 05:33:01;;;;;;;21.30;18.13;;;;;;;6.83;59.77;102082.34;4975235;28;20033;-76
2022/12/03 05:35:27;;;;;;;24.60;18.38;;;;;;;6.84;60.02;102080.50;4974856;28;20098;-70
2022/12/03 05:37:52;;;;;;;24.25;19.83;;;;;;;6.83;59.92;102082.34;4975220;28;20368;-71
2022/12/03 05:40:18;;;;;;;23.83;20.35;;;;;;;6.83;59.92;102084.19;4974425;28;20066;-72
2022/12/03 05:42:53;;;;;;;26.63;19.38;;;;;;;6.83;60.06;102074.28;4975158;28;20039;-70
2022/12/03 05:45:30;;;;;;;24.30;19.02;;;;;;;6.82;59.97;102074.47;4975290;28;20118;-71
2022/12/03 05:47:57;;;;;;;21.15;18.90;;;;;;;6.82;59.98;102075.28;4975832;28;20054;-72
2022/12/03 05:50:24;;;;;;;22.95;20.17;;;;;;;6.81;59.97;102070.13;4989801;28;20027;-71
2022/12/03 05:52:50;;;;;;;26.75;18.88;;;;;;;6.81;59.98;102079.00;4974901;28;20467;-72
2022/12/03 05:55:16;;;;;;;24.30;19.30;;;;;;;6.80;59.76;102071.94;4974996;28;20089;-71
2022/12/03 05:57:42;;;;;;;22.25;19.88;;;;;;;6.80;59.87;102071.94;4974948;28;20046;-72
2022/12/03 06:00:13;;;;;;;22.70;20.45;;;;;;;6.81;60.11;102078.19;4974884;28;20054;-71
2022/12/03 06:02:39;;;;;;;22.45;20.02;;;;;;;6.81;60.00;102073.63;4975601;28;20097;-70
2022/12/03 06:05:05;;;;;;;23.65;20.33;;;;;;;6.81;59.92;102080.88;4975317;28;20515;-76
2022/12/03 06:07:30;;;;;;;21.10;18.75;;;;;;;6.81;59.99;102080.88;4974804;28;20027;-71
2022/12/03 06:09:55;;;;;;;19.80;17.85;;;;;;;6.80;59.92;102073.81;4989948;28;20048;-71
2022/12/03 06:12:21;;;;;;;24.90;19.67;;;;;;;6.79;60.11;102072.16;4974685;28;20102;-73
2022/12/03 06:14:46;;;;;;;19.83;17.25;;;;;;;6.79;59.70;102072.16;4989946;28;20031;-71
2022/12/03 06:17:12;;;;;;;22.88;19.58;;;;;;;6.79;59.93;102075.66;4974900;28;20055;-70
2022/12/03 06:19:37;;;;;;;24.02;18.85;;;;;;;6.79;60.29;102078.34;4974684;28;20027;-70
2022/12/03 06:22:02;;;;;;;23.05;19.60;;;;;;;6.77;59.78;102080.38;4974601;28;20534;-73
2022/12/03 06:24:28;;;;;;;21.73;18.95;;;;;;;6.77;59.85;102075.00;4974529;28;20498;-72
2022/12/03 06:26:53;;;;;;;26.73;19.45;;;;;;;6.77;59.74;102076.88;4974604;28;20097;-71
2022/12/03 06:29:18;;;;;;;24.30;19.38;;;;;;;6.76;60.17;102075.22;4973349;28;20111;-74
2022/12/03 06:31:44;;;;;;;21.75;17.95;;;;;;;6.78;59.82;102075.84;4989459;28;20031;-72
2022/12/03 06:34:09;;;;;;;21.77;18.30;;;;;;;6.78;60.09;102079.38;4973193;28;20030;-71
2022/12/03 06:36:34;;;;;;;22.10;19.55;;;;;;;6.78;60.06;102081.22;4976773;28;20118;-71
2022/12/03 06:39:00;;;;;;;22.10;19.63;;;;;;;6.78;59.69;102067.78;4978158;28;20035;-71
2022/12/03 06:41:25;;;;;;;32.08;21.60;;;;;;;6.77;59.91;102075.00;4978784;28;20038;-70
2022/12/03 06:43:50;;;;;;;23.52;20.02;;;;;;;6.77;60.04;102072.31;4978301;28;20074;-72
2022/12/03 06:46:16;;;;;;;25.83;19.70;;;;;;;6.75;59.67;102071.66;4976907;28;20051;-71
2022/12/03 06:48:41;;;;;;;26.55;19.73;;;;;;;6.76;60.16;102076.03;4993202;28;20035;-72
2022/12/03 06:51:06;;;;;;;25.55;20.55;;;;;;;6.76;59.95;102075.22;4978245;28;20039;-71
2022/12/03 06:53:32;;;;;;;25.92;21.02;;;;;;;6.75;60.06;102066.28;4993123;28;20471;-72
2022/12/03 06:55:57;;;;;;;24.52;19.85;;;;;;;6.75;60.05;102066.28;4976742;28;20047;-74
2022/12/03 06:58:22;;;;;;;33.90;21.17;;;;;;;6.75;59.95;102070.84;4992782;28;20077;-71
2022/12/03 07:00:48;;;;;;;21.15;19.02;;;;;;;6.75;59.90;102068.16;4978266;28;20090;-70
2022/12/03 07:03:13;;;;;;;24.58;20.35;;;;;;;6.75;59.87;102065.47;4992751;28;20031;-71
2022/12/03 07:05:39;;;;;;;20.55;18.40;;;;;;;6.74;59.70;102067.34;4977245;28;20121;-71
2022/12/03 07:08:04;;;;;;;27.30;20.63;;;;;;;6.74;59.94;102064.66;4992892;28;20046;-72
2022/12/03 07:10:30;;;;;;;21.00;18.95;;;;;;;6.75;59.94;102073.53;4978111;28;20161;-71
2022/12/03 07:12:55;;;;;;;21.65;18.65;;;;;;;6.74;60.04;102070.00;4976336;28;20112;-72
2022/12/03 07:15:20;;;;;;;24.08;21.27;;;;;;;6.74;60.18;102067.34;4992651;28;20054;-69
2022/12/03 07:17:46;;;;;;;23.15;18.75;;;;;;;6.73;59.79;102068.38;4976151;28;20039;-73
2022/12/03 07:20:12;;;;;;;20.90;18.73;;;;;;;6.74;59.97;102063.81;4976456;28;20460;-78
2022/12/03 07:22:37;;;;;;;23.38;18.90;;;;;;;6.72;60.00;102064.00;4977314;28;20030;-70
2022/12/03 07:25:03;;;;;;;23.55;18.77;;;;;;;6.72;60.17;102064.81;4978135;28;20364;-70
2022/12/03 07:27:28;;;;;;;26.17;19.88;;;;;;;6.73;60.00;102068.38;4977566;28;20041;-71
2022/12/03 07:29:54;;;;;;;24.20;18.05;;;;;;;6.73;60.16;102068.38;4977600;28;20395;-69
2022/12/03 07:32:19;;;;;;;25.58;19.70;;;;;;;6.71;60.04;102063.16;4976227;28;20039;-70
2022/12/03 07:34:44;;;;;;;24.55;18.80;;;;;;;6.73;60.03;102068.38;4976166;28;20034;-72
2022/12/03 07:37:10;;;;;;;21.30;19.15;;;;;;;6.74;60.07;102071.88;4977426;28;20528;-70
2022/12/03 07:39:35;;;;;;;22.15;18.10;;;;;;;6.73;59.83;102073.72;4992368;28;20513;-70
2022/12/03 07:42:01;;;;;;;23.60;18.92;;;;;;;6.72;59.91;102070.19;4977262;28;20082;-71
2022/12/03 07:44:27;;;;;;;22.33;18.67;;;;;;;6.72;59.92;102074.72;4977161;28;20027;-70
2022/12/03 07:46:53;;;;;;;25.95;19.75;;;;;;;6.73;60.21;102071.03;4975311;28;20475;-69
2022/12/03 07:49:18;;;;;;;23.85;18.75;;;;;;;6.73;59.89;102071.03;4977331;28;20031;-71
2022/12/03 07:51:52;;;;;;;22.23;17.95;;;;;;;6.72;59.85;102064.00;4992337;28;20526;-71
2022/12/03 07:54:18;;;;;;;21.80;18.52;;;;;;;6.72;60.04;102072.03;4976778;28;20204;-78
2022/12/03 07:56:43;;;;;;;24.77;19.13;;;;;;;6.71;59.95;102065.03;4977019;28;20558;-74
2022/12/03 07:59:09;;;;;;;24.10;19.58;;;;;;;6.70;60.05;102069.56;4992207;28;20050;-71
2022/12/03 08:01:34;;;;;;;24.48;19.42;;;;;;;6.70;59.90;102068.72;4976607;28;20031;-71
2022/12/03 08:03:59;;;;;;;25.35;20.27;;;;;;;6.71;59.98;102075.75;4976566;28;20372;-70
2022/12/03 08:06:25;;;;;;;25.38;20.58;;;;;;;6.71;60.20;102067.72;4975526;28;20054;-73
2022/12/03 08:08:50;;;;;;;25.60;19.40;;;;;;;6.71;59.84;102070.38;4991804;28;20066;-71
2022/12/03 08:11:16;;;;;;;27.48;20.30;;;;;;;6.70;59.90;102076.75;4991650;28;20026;-70
2022/12/03 08:13:41;;;;;;;22.20;19.98;;;;;;;6.69;60.14;102073.25;4976419;28;20039;-70
2022/12/03 08:16:25;;;;;;;20.75;17.80;;;;;;;6.70;60.23;102071.38;4976525;28;20039;-72
2022/12/03 08:18:56;;;;;;;24.50;19.85;;;;;;;6.69;60.04;102075.09;4976842;28;20493;-72
2022/12/03 08:21:21;;;;;;;28.70;19.35;;;;;;;6.69;60.04;102075.09;4976714;28;20041;-75
2022/12/03 08:23:47;;;;;;;23.27;20.58;;;;;;;6.68;60.10;102082.34;4976483;28;20031;-70
2022/12/03 08:26:22;;;;;;;24.15;18.85;;;;;;;6.69;60.04;102081.31;4991642;28;20038;-74
2022/12/03 08:28:48;;;;;;;24.67;18.65;;;;;;;6.68;60.31;102076.97;4976336;28;20031;-71
2022/12/03 08:31:18;;;;;;;23.70;20.02;;;;;;;6.68;59.93;102070.75;4976348;28;20035;-72
2022/12/03 08:33:46;;;;;;;22.70;17.70;;;;;;;6.68;60.02;102066.22;4976290;28;20066;-71
2022/12/03 08:36:28;;;;;;;27.90;19.03;;;;;;;6.68;60.02;102066.22;4976116;28;20475;-71
2022/12/03 08:38:57;;;;;;;24.75;19.25;;;;;;;6.68;59.92;102070.75;4976238;28;20030;-71
2022/12/03 08:44:16;;;;;;;24.70;19.60;;;;;;;6.66;60.15;102057.50;4976670;28;20120;-71
2022/12/03 08:46:41;;;;;;;22.05;19.85;;;;;;;6.66;60.11;102070.94;4976451;28;20470;-70
2022/12/03 08:49:08;;;;;;;23.27;19.60;;;;;;;6.66;60.20;102068.25;4976032;28;20047;-71
2022/12/03 08:51:33;;;;;;;27.00;20.05;;;;;;;6.67;60.08;102066.41;4975635;28;20035;-70
2022/12/03 08:54:10;;;;;;;24.20;19.92;;;;;;;6.66;60.14;102070.94;4976212;28;20038;-72
2022/12/03 08:56:36;;;;;;;22.20;18.50;;;;;;;6.67;60.00;102071.75;4976438;28;20106;-72
2022/12/03 08:59:23;;;;;;;19.40;17.50;;;;;;;6.65;60.02;102069.28;4975408;28;20047;-70
2022/12/03 09:01:50;;;;;;;25.45;18.52;;;;;;;6.65;60.20;102063.06;4975794;28;20035;-70
2022/12/03 09:04:34;;;;;;;20.63;18.15;;;;;;;6.64;59.93;102058.72;4975682;28;20030;-71
2022/12/03 09:07:00;;;;;;;29.30;19.48;;;;;;;6.64;60.34;102067.59;4975738;28;20030;-70
2022/12/03 09:09:25;;;;;;;21.90;18.40;;;;;;;6.65;60.07;102063.06;4975869;28;20038;-78
2022/12/03 09:11:52;;;;;;;25.75;18.98;;;;;;;6.64;60.11;102072.97;4976248;28;20039;-69
2022/12/03 09:14:21;;;;;;;21.77;19.05;;;;;;;6.65;60.06;102071.13;4975528;28;20027;-72
2022/12/03 09:16:47;;;;;;;21.75;18.15;;;;;;;6.65;60.15;102063.91;4975491;28;20030;-71
2022/12/03 09:19:12;;;;;;;23.35;18.00;;;;;;;6.64;59.90;102067.59;4975938;28;20037;-72
2022/12/03 09:21:38;;;;;;;21.80;19.30;;;;;;;6.65;59.98;102076.47;4975849;28;20110;-71
2022/12/03 09:24:03;;;;;;;24.65;19.52;;;;;;;6.64;60.00;102064.91;4990249;28;20030;-70
2022/12/03 09:26:29;;;;;;;25.83;19.80;;;;;;;6.64;60.20;102067.59;4990160;28;20043;-78
2022/12/03 09:28:54;;;;;;;21.13;18.50;;;;;;;6.65;59.98;102071.13;4975586;28;20062;-72
2022/12/03 09:31:20;;;;;;;19.50;17.48;;;;;;;6.65;60.28;102068.44;4989817;28;20030;-71
2022/12/03 09:33:45;;;;;;;24.17;20.67;;;;;;;6.65;60.14;102066.59;4974689;28;20037;-70
2022/12/03 09:36:10;;;;;;;20.83;17.73;;;;;;;6.64;59.89;102064.91;4974047;28;20037;-73
2022/12/03 09:38:36;;;;;;;22.23;19.98;;;;;;;6.64;59.94;102072.97;4975144;28;20117;-70
2022/12/03 09:41:01;;;;;;;18.40;16.52;;;;;;;6.64;59.98;102067.59;4975266;28;20027;-72
2022/12/03 09:43:31;;;;;;;22.73;18.33;;;;;;;6.64;60.16;102066.78;4975317;28;20042;-70
2022/12/03 09:45:57;;;;;;;24.75;18.83;;;;;;;6.62;60.15;102061.56;4974980;28;20037;-72
2022/12/03 09:48:22;;;;;;;20.08;17.80;;;;;;;6.63;60.02;102060.56;4974655;28;20044;-69
2022/12/03 09:50:48;;;;;;;21.80;19.55;;;;;;;6.62;60.01;102058.88;4974900;28;20035;-71
2022/12/03 09:53:19;;;;;;;24.60;19.30;;;;;;;6.62;59.94;102058.06;4975193;28;20050;-70
2022/12/03 09:55:46;;;;;;;28.75;20.75;;;;;;;6.62;60.01;102058.88;4973821;28;20493;-72
2022/12/03 09:58:14;;;;;;;19.40;16.90;;;;;;;6.61;60.31;102057.22;4989770;28;20423;-70
2022/12/03 10:00:42;;;;;;;23.70;20.98;;;;;;;6.62;59.90;102060.75;4974736;28;20022;-71
2022/12/03 10:03:12;;;;;;;25.05;20.58;;;;;;;6.61;60.28;102048.34;4975321;28;20085;-74
2022/12/03 10:05:38;;;;;;;25.75;20.75;;;;;;;6.61;60.28;102048.34;4975071;28;20037;-73
2022/12/03 10:08:07;;;;;;;21.98;19.08;;;;;;;6.61;59.91;102049.19;4975307;28;20030;-75
2022/12/03 10:10:34;;;;;;;22.23;17.85;;;;;;;6.60;60.12;102043.97;4974791;28;20093;-77
2022/12/03 10:12:59;;;;;;;24.00;19.00;;;;;;;6.61;60.01;102037.63;4974745;28;20459;-73
2022/12/03 10:15:25;;;;;;;27.80;17.80;;;;;;;6.60;60.26;102039.47;4974582;28;20026;-73
2022/12/03 10:17:53;;;;;;;22.25;17.77;;;;;;;6.59;60.06;102027.03;4974576;28;20035;-72
2022/12/03 10:20:21;;;;;;;22.73;18.15;;;;;;;6.59;59.98;102031.59;4974633;28;20038;-71
2022/12/03 10:22:47;;;;;;;26.02;18.65;;;;;;;6.59;59.73;102029.72;4973332;28;20089;-73
2022/12/03 10:25:22;;;;;;;20.27;18.10;;;;;;;6.58;60.28;102025.38;4974610;28;20102;-75
2022/12/03 10:28:25;;;;;;;31.88;21.13;;;;;;;6.58;60.07;102024.56;4974516;28;20547;-72
2022/12/03 10:30:54;;;;;;;28.25;19.83;;;;;;;6.58;60.00;102019.19;4974906;28;20062;-73
2022/12/03 10:33:20;;;;;;;25.08;19.20;;;;;;;6.57;60.15;102021.03;4974508;28;20066;-73
2022/12/03 10:35:45;;;;;;;29.48;20.48;;;;;;;6.57;60.00;102021.03;4989303;28;20123;-71
2022/12/03 10:38:16;;;;;;;22.10;19.02;;;;;;;6.58;59.98;102013.81;4974674;28;20058;-70
2022/12/03 10:40:42;;;;;;;32.80;20.08;;;;;;;6.58;60.13;102016.50;4974849;28;20170;-72
2022/12/03 10:43:13;;;;;;;22.85;19.13;;;;;;;6.58;59.95;102009.28;4974156;28;20460;-73
2022/12/03 10:45:39;;;;;;;26.13;18.67;;;;;;;6.58;60.15;102001.22;4972997;28;20478;-70
2022/12/03 10:48:20;;;;;;;20.00;17.90;;;;;;;6.58;59.97;102003.91;4974144;28;20074;-71
2022/12/03 10:51:25;;;;;;;30.02;20.50;;;;;;;6.58;60.03;101993.19;4974546;28;20451;-70
2022/12/03 10:53:51;;;;;;;24.50;18.73;;;;;;;6.57;59.91;101996.84;4933619;29;20127;-70
2022/12/03 10:56:24;;;;;;;22.30;20.08;;;;;;;6.58;60.03;101992.34;4933446;29;20070;-71
2022/12/03 10:58:50;;;;;;;22.50;20.30;;;;;;;6.57;59.88;101990.66;4954682;28;20046;-69
2022/12/03 11:01:24;;;;;;;24.08;18.65;;;;;;;6.58;59.86;101995.03;4974325;28;20170;-72
2022/12/03 11:03:51;;;;;;;26.50;19.90;;;;;;;6.56;59.87;101989.84;4974668;28;20033;-71
2022/12/03 11:06:21;;;;;;;22.48;18.17;;;;;;;6.57;60.15;101982.63;4973973;28;20031;-75
2022/12/03 11:08:49;;;;;;;28.02;19.60;;;;;;;6.57;60.04;101985.28;4989167;28;20045;-71
2022/12/03 11:11:18;;;;;;;29.52;20.55;;;;;;;6.58;59.92;101984.28;4989939;28;20073;-71
2022/12/03 11:13:47;;;;;;;22.90;17.25;;;;;;;6.57;60.02;101983.44;4973132;28;20379;-74
2022/12/03 11:16:33;;;;;;;23.73;18.17;;;;;;;6.58;59.72;101984.28;4974563;28;20078;-70
2022/12/03 11:19:00;;;;;;;19.33;16.50;;;;;;;6.58;59.95;101978.94;4972431;28;20487;-71
2022/12/03 11:21:25;;;;;;;26.02;18.73;;;;;;;6.56;59.71;101968.38;4975758;28;20034;-71
2022/12/03 11:23:50;;;;;;;22.92;20.42;;;;;;;6.57;59.87;101975.38;4977299;28;20113;-72
2022/12/03 11:26:36;;;;;;;25.85;19.73;;;;;;;6.56;59.78;101973.72;4977567;28;20117;-71
2022/12/03 11:29:03;;;;;;;26.90;19.52;;;;;;;6.56;60.13;101971.03;4991821;28;20388;-74
2022/12/03 11:31:35;;;;;;;19.95;17.38;;;;;;;6.56;60.00;101965.69;4977509;28;20027;-71
2022/12/03 11:34:18;;;;;;;26.55;19.20;;;;;;;6.55;59.91;101958.66;4977854;28;20078;-70
2022/12/03 11:37:16;;;;;;;22.40;18.38;;;;;;;6.54;59.76;101954.28;4977476;28;20030;-76